createdAt,value
2023-02-24T00:00:28.483Z,94587.63
2023-02-24T00:03:12.450Z,94586.78
2023-02-24T00:06:06.461Z,94587.59
2023-02-24T00:08:54.453Z,94580.84
2023-02-24T00:11:28.149Z,94579.16
2023-02-24T00:14:16.502Z,94578.31
2023-02-24T00:16:50.604Z,94575.81
2023-02-24T00:19:41.488Z,94570.75
2023-02-24T00:22:35.597Z,94568.25
2023-02-24T00:25:29.465Z,94557.34
2023-02-24T00:28:16.524Z,94564.03
2023-02-24T00:30:49.625Z,94548.91
2023-02-24T00:33:37.476Z,94550.56
2023-02-24T00:36:12.589Z,94548.91
2023-02-24T00:39:04.452Z,94532.91
2023-02-24T00:41:40.221Z,94539.63
2023-02-24T00:44:26.458Z,94532.88
2023-02-24T00:47:01.580Z,94540.44
2023-02-24T00:49:49.479Z,94537.88
2023-02-24T00:52:34.457Z,94535.34
2023-02-24T00:55:29.475Z,94529.41
2023-02-24T00:58:26.457Z,94526.06
2023-02-24T01:01:20.902Z,94523.56
2023-02-24T01:03:55.599Z,94523.56
2023-02-24T01:06:42.519Z,94519.38
2023-02-24T01:09:23.592Z,94509.31
2023-02-24T01:12:29.545Z,94501.72
2023-02-24T01:15:03.249Z,94500.06
2023-02-24T01:17:50.489Z,94505.09
2023-02-24T01:20:30.564Z,94500.94
2023-02-24T01:23:17.480Z,94491.72
2023-02-24T01:25:58.254Z,94495.13
2023-02-24T01:28:44.517Z,94492.63
2023-02-24T01:31:24.104Z,94484.22
2023-02-24T01:34:12.515Z,94479.16
2023-02-24T01:36:55.486Z,94476.66
2023-02-24T01:39:49.530Z,94475.84
2023-02-24T01:42:36.525Z,94473.38
2023-02-24T01:45:18.665Z,94476.72
2023-02-24T01:48:11.482Z,94475.03
2023-02-24T01:50:45.568Z,94465.78
2023-02-24T01:53:32.522Z,94466.66
2023-02-24T01:56:06.980Z,94469.13
2023-02-24T01:58:54.524Z,94465.78
2023-02-24T02:01:35.616Z,94455.69
2023-02-24T02:04:40.525Z,94457.41
2023-02-24T02:07:29.528Z,94453.19
2023-02-24T02:10:13.524Z,94449.00
2023-02-24T02:13:11.528Z,94444.78
2023-02-24T02:16:26.626Z,94444.78
2023-02-24T02:19:15.584Z,94442.25
2023-02-24T02:22:14.512Z,94441.44
2023-02-24T02:25:13.554Z,94432.19
2023-02-24T02:28:09.573Z,94436.44
2023-02-24T02:31:19.970Z,94434.75
2023-02-24T02:34:08.522Z,94430.53
2023-02-24T02:37:18.525Z,94435.59
2023-02-24T02:40:07.527Z,94429.72
2023-02-24T02:43:05.522Z,94431.38
2023-02-24T02:46:22.600Z,94422.19
2023-02-24T02:49:45.525Z,94422.19
2023-02-24T02:52:41.526Z,94424.75
2023-02-24T02:55:23.918Z,94426.44
2023-02-24T02:58:15.543Z,94427.31
2023-02-24T03:01:02.763Z,94420.59
2023-02-24T03:03:53.531Z,94417.22
2023-02-24T03:06:40.657Z,94408.84
2023-02-24T03:09:32.522Z,94402.13
2023-02-24T03:12:24.524Z,94400.47
2023-02-24T03:15:24.539Z,94403.88
2023-02-24T03:18:18.561Z,94404.75
2023-02-24T03:21:24.937Z,94398.88
2023-02-24T03:24:13.561Z,94405.59
2023-02-24T03:26:58.307Z,94408.13
2023-02-24T03:30:01.541Z,94404.75
2023-02-24T03:32:51.955Z,94408.94
2023-02-24T03:35:53.645Z,94408.94
2023-02-24T03:38:48.493Z,94410.63
2023-02-24T03:41:45.504Z,94403.06
2023-02-24T03:44:18.680Z,94416.50
2023-02-24T03:47:08.481Z,94414.81
2023-02-24T03:49:43.830Z,94407.28
2023-02-24T03:52:46.496Z,94404.78
2023-02-24T03:56:05.552Z,94407.31
2023-02-24T03:59:22.499Z,94410.72
2023-02-24T04:02:12.614Z,94409.88
2023-02-24T04:04:55.720Z,94404.84
2023-02-24T04:08:07.550Z,94396.50
2023-02-24T04:11:05.725Z,94392.31
2023-02-24T04:14:17.680Z,94390.63
2023-02-24T04:17:08.991Z,94387.28
2023-02-24T04:19:58.498Z,94389.00
2023-02-24T04:22:33.648Z,94375.59
2023-02-24T04:25:24.561Z,94368.03
2023-02-24T04:28:07.551Z,94368.88
2023-02-24T04:31:05.628Z,94365.50
2023-02-24T04:33:56.521Z,94368.06
2023-02-24T04:36:29.658Z,94360.47
2023-02-24T04:39:17.704Z,94356.28
2023-02-24T04:41:52.659Z,94350.41
2023-02-24T04:44:39.551Z,94349.56
2023-02-24T04:47:19.571Z,94347.91
2023-02-24T04:50:06.582Z,94343.69
2023-02-24T04:52:39.670Z,94336.16
2023-02-24T04:55:28.576Z,94334.47
2023-02-24T04:58:03.639Z,94341.22
2023-02-24T05:00:50.575Z,94334.47
2023-02-24T05:03:28.707Z,94327.75
2023-02-24T05:06:21.565Z,94321.06
2023-02-24T05:09:01.586Z,94330.31
2023-02-24T05:11:57.553Z,94314.34
2023-02-24T05:14:46.583Z,94315.19
2023-02-24T05:17:20.171Z,94310.97
2023-02-24T05:20:24.584Z,94304.25
2023-02-24T05:23:18.587Z,94304.25
2023-02-24T05:26:15.598Z,94301.75
2023-02-24T05:29:09.566Z,94301.75
2023-02-24T05:31:56.686Z,94295.03
2023-02-24T05:34:37.620Z,94292.50
2023-02-24T05:37:24.583Z,94289.97
2023-02-24T05:40:10.590Z,94290.81
2023-02-24T05:42:58.592Z,94284.09
2023-02-24T05:45:38.579Z,94290.81
2023-02-24T05:48:32.578Z,94289.97
2023-02-24T05:51:19.805Z,94281.59
2023-02-24T05:54:02.575Z,94284.09
2023-02-24T05:56:50.585Z,94284.97
2023-02-24T05:59:32.658Z,94280.75
2023-02-24T06:02:33.614Z,94275.72
2023-02-24T06:05:36.669Z,94282.44
2023-02-24T06:08:30.582Z,94282.47
2023-02-24T06:11:26.727Z,94278.28
2023-02-24T06:14:22.619Z,94276.59
2023-02-24T06:17:16.580Z,94279.13
2023-02-24T06:20:20.589Z,94272.41
2023-02-24T06:23:15.612Z,94270.75
2023-02-24T06:26:26.592Z,94268.25
2023-02-24T06:29:13.610Z,94255.63
2023-02-24T06:31:48.685Z,94257.31
2023-02-24T06:34:36.585Z,94249.75
2023-02-24T06:37:17.605Z,94248.91
2023-02-24T06:40:05.623Z,94243.03
2023-02-24T06:42:45.600Z,94239.66
2023-02-24T06:45:33.680Z,94223.69
2023-02-24T06:48:15.630Z,94227.06
2023-02-24T06:51:11.602Z,94221.19
2023-02-24T06:54:08.633Z,94227.06
2023-02-24T06:57:05.630Z,94222.84
2023-02-24T06:59:52.631Z,94221.19
2023-02-24T07:02:39.742Z,94226.22
2023-02-24T07:05:30.657Z,94224.53
2023-02-24T07:08:03.713Z,94215.28
2023-02-24T07:10:51.611Z,94223.69
2023-02-24T07:13:24.715Z,94217.81
2023-02-24T07:16:14.608Z,94208.53
2023-02-24T07:18:48.946Z,94206.00
2023-02-24T07:21:38.588Z,94200.09
2023-02-24T07:24:20.631Z,94193.34
2023-02-24T07:27:18.630Z,94188.28
2023-02-24T07:30:05.621Z,94193.31
2023-02-24T07:32:46.672Z,94193.28
2023-02-24T07:38:34.627Z,94184.81
2023-02-24T07:41:25.674Z,94185.63
2023-02-24T07:44:09.631Z,94186.44
2023-02-24T07:46:56.649Z,94178.81
2023-02-24T07:49:37.632Z,94171.22
2023-02-24T07:52:31.619Z,94176.22
2023-02-24T07:55:18.645Z,94173.66
2023-02-24T07:58:01.663Z,94164.31
2023-02-24T08:01:07.622Z,94160.88
2023-02-24T08:03:58.630Z,94155.72
2023-02-24T08:06:47.968Z,94160.72
2023-02-24T08:09:59.621Z,94158.06
2023-02-24T08:12:35.200Z,94150.41
2023-02-24T08:15:24.671Z,94153.69
2023-02-24T08:18:06.638Z,94153.59
2023-02-24T08:21:00.627Z,94150.94
2023-02-24T08:23:51.636Z,94145.81
2023-02-24T08:26:30.755Z,94141.47
2023-02-24T08:29:20.945Z,94143.09
2023-02-24T08:31:53.874Z,94144.69
2023-02-24T08:34:40.636Z,94136.09
2023-02-24T08:37:15.743Z,94139.34
2023-02-24T08:42:53.731Z,94135.84
2023-02-24T08:45:40.679Z,94132.44
2023-02-24T08:48:26.376Z,94130.69
2023-02-24T08:51:13.638Z,94125.53
2023-02-24T08:53:47.192Z,94124.59
2023-02-24T08:56:36.648Z,94124.53
2023-02-24T08:59:29.131Z,94124.44
2023-02-24T09:02:25.645Z,94117.59
2023-02-24T09:05:03.943Z,94114.94
2023-02-24T09:07:50.682Z,94108.88
2023-02-24T09:10:32.639Z,94107.91
2023-02-24T09:13:26.690Z,94107.78
2023-02-24T09:16:25.005Z,94104.25
2023-02-24T09:19:30.642Z,94092.31
2023-02-24T09:22:21.825Z,94097.22
2023-02-24T09:25:24.641Z,94090.41
2023-02-24T09:28:15.651Z,94082.78
2023-02-24T09:30:58.600Z,94078.53
2023-02-24T09:33:45.634Z,94073.47
2023-02-24T09:36:30.239Z,94073.59
2023-02-24T09:39:16.692Z,94074.56
2023-02-24T09:45:19.650Z,94072.94
2023-02-24T09:48:01.663Z,94068.78
2023-02-24T09:51:18.917Z,94068.03
2023-02-24T09:54:20.614Z,94065.50
2023-02-24T09:57:17.213Z,94064.69
2023-02-24T10:00:34.502Z,94049.53
2023-02-24T10:03:19.951Z,94047.06
2023-02-24T10:06:18.697Z,94047.97
2023-02-24T10:09:06.516Z,94045.47
2023-02-24T10:15:25.665Z,94043.69
2023-02-24T10:19:07.663Z,94026.72
2023-02-24T10:22:14.705Z,94026.69
2023-02-24T10:25:22.583Z,94010.56
2023-02-24T10:28:26.698Z,94011.44
2023-02-24T10:31:26.075Z,94010.56
2023-02-24T10:34:17.677Z,94016.44
2023-02-24T10:36:57.684Z,94015.53
2023-02-24T10:39:51.487Z,94004.47
2023-02-24T10:42:43.667Z,93996.75
2023-02-24T10:45:40.693Z,93990.69
2023-02-24T10:48:41.464Z,93983.81
2023-02-24T10:51:28.698Z,93982.09
2023-02-24T10:54:40.725Z,93971.03
2023-02-24T10:57:24.697Z,93962.44
2023-02-24T11:00:58.732Z,93958.09
2023-02-24T11:03:54.688Z,93943.28
2023-02-24T11:06:48.706Z,93936.06
2023-02-24T11:09:35.669Z,93924.66
2023-02-24T11:12:37.533Z,93925.28
2023-02-24T11:15:44.584Z,93919.22
2023-02-24T11:18:27.827Z,93916.59
2023-02-24T11:21:24.686Z,93908.84
2023-02-24T11:24:19.690Z,93903.78
2023-02-24T11:27:09.818Z,93901.09
2023-02-24T11:30:06.786Z,93899.28
2023-02-24T11:33:23.697Z,93894.19
2023-02-24T11:36:26.713Z,93894.84
2023-02-24T11:39:47.685Z,93895.59
2023-02-24T11:43:05.685Z,93889.69
2023-02-24T11:45:57.744Z,93877.03
2023-02-24T11:48:38.835Z,93878.72
2023-02-24T11:51:29.704Z,93871.97
2023-02-24T11:54:08.798Z,93879.59
2023-02-24T11:57:06.702Z,93876.13
2023-02-24T12:00:04.687Z,93871.84
2023-02-24T12:03:04.124Z,93870.94
2023-02-24T12:05:55.747Z,93861.75
2023-02-24T12:08:37.886Z,93855.81
2023-02-24T12:11:53.734Z,93849.19
2023-02-24T12:14:51.819Z,93836.56
2023-02-24T12:17:55.724Z,93836.63
2023-02-24T12:20:46.715Z,93832.41
2023-02-24T12:23:45.720Z,93823.91
2023-02-24T12:26:38.713Z,93817.97
2023-02-24T12:29:35.873Z,93814.50
2023-02-24T12:32:56.756Z,93811.88
2023-02-24T12:35:54.717Z,93810.22
2023-02-24T12:38:49.765Z,93805.16
2023-02-24T12:41:49.713Z,93806.06
2023-02-24T12:44:43.839Z,93801.81
2023-02-24T12:47:53.950Z,93816.25
2023-02-24T12:50:53.720Z,93811.03
2023-02-24T12:53:57.813Z,93806.63
2023-02-24T12:57:06.748Z,93801.34
2023-02-24T12:59:45.823Z,93799.50
2023-02-24T13:03:07.741Z,93807.03
2023-02-24T13:05:56.753Z,93800.13
2023-02-24T13:09:04.716Z,93798.31
2023-02-24T13:12:09.726Z,93789.69
2023-02-24T13:14:57.749Z,93787.03
2023-02-24T13:17:32.838Z,93780.94
2023-02-24T13:20:20.719Z,93790.03
2023-02-24T13:23:00.731Z,93792.47
2023-02-24T13:25:54.735Z,93785.66
2023-02-24T13:28:44.736Z,93774.56
2023-02-24T13:31:23.691Z,93776.22
2023-02-24T13:34:36.750Z,93766.91
2023-02-24T13:37:09.975Z,93770.47
2023-02-24T13:39:56.733Z,93772.22
2023-02-24T13:42:42.765Z,93772.25
2023-02-24T13:45:43.745Z,93778.25
2023-02-24T13:48:42.754Z,93773.28
2023-02-24T13:52:04.837Z,93771.72
2023-02-24T13:55:04.751Z,93776.97
2023-02-24T13:58:21.755Z,93771.09
2023-02-24T14:01:22.234Z,93760.19
2023-02-24T14:04:17.756Z,93765.41
2023-02-24T14:06:57.879Z,93762.03
2023-02-24T14:09:49.746Z,93761.22
2023-02-24T14:12:33.742Z,93763.88
2023-02-24T14:15:32.838Z,93755.47
2023-02-24T14:18:35.757Z,93750.56
2023-02-24T14:21:09.892Z,93746.34
2023-02-24T14:24:08.768Z,93750.66
2023-02-24T14:26:49.960Z,93753.34
2023-02-24T14:29:44.211Z,93739.09
2023-02-24T14:32:34.872Z,93740.84
2023-02-24T14:35:38.779Z,93738.28
2023-02-24T14:38:12.865Z,93751.97
2023-02-24T14:40:59.776Z,93741.91
2023-02-24T14:43:40.770Z,93741.06
2023-02-24T14:46:27.838Z,93728.50
2023-02-24T14:49:08.810Z,93726.97
2023-02-24T14:52:01.771Z,93729.63
2023-02-24T14:55:03.914Z,93720.44
2023-02-24T14:58:08.767Z,93721.44
2023-02-24T15:00:56.790Z,93710.69
2023-02-24T15:03:57.776Z,93697.41
2023-02-24T15:06:49.837Z,93679.03
2023-02-24T15:09:34.812Z,93683.47
2023-02-24T15:12:42.786Z,93684.53
2023-02-24T15:15:34.783Z,93683.94
2023-02-24T15:18:40.813Z,93681.50
2023-02-24T15:21:45.793Z,93677.38
2023-02-24T15:24:47.776Z,93673.28
2023-02-24T15:27:42.794Z,93674.25
2023-02-24T15:30:40.824Z,93669.34
2023-02-24T15:33:30.795Z,93670.34
2023-02-24T15:36:05.870Z,93667.84
2023-02-24T15:38:53.817Z,93662.91
2023-02-24T15:41:26.887Z,93666.38
2023-02-24T15:44:28.780Z,93658.88
2023-02-24T15:47:10.831Z,93650.47
2023-02-24T15:49:57.793Z,93653.91
2023-02-24T15:52:40.861Z,93651.44
2023-02-24T15:55:41.920Z,93640.50
2023-02-24T15:58:29.799Z,93642.25
2023-02-24T16:01:02.911Z,93642.28
2023-02-24T16:03:49.838Z,93634.75
2023-02-24T16:06:28.502Z,93635.66
2023-02-24T16:09:22.797Z,93627.31
2023-02-24T16:11:55.928Z,93614.75
2023-02-24T16:14:42.803Z,93629.25
2023-02-24T16:17:43.894Z,93626.78
2023-02-24T16:20:41.878Z,93638.72
2023-02-24T16:23:16.884Z,93628.63
2023-02-24T16:26:05.812Z,93627.91
2023-02-24T16:28:38.883Z,93628.84
2023-02-24T16:31:26.064Z,93629.75
2023-02-24T16:34:01.095Z,93638.28
2023-02-24T16:36:48.826Z,93635.81
2023-02-24T16:39:28.823Z,93641.81
2023-02-24T16:42:23.796Z,93632.56
2023-02-24T16:45:17.821Z,93652.00
2023-02-24T16:48:07.829Z,93647.78
2023-02-24T16:50:45.969Z,93653.75
2023-02-24T16:53:32.819Z,93639.41
2023-02-24T16:56:12.837Z,93644.50
2023-02-24T16:59:06.829Z,93634.38
2023-02-24T17:01:53.815Z,93635.28
2023-02-24T17:04:29.012Z,93636.19
2023-02-24T17:07:17.812Z,93638.72
2023-02-24T17:09:50.988Z,93640.50
2023-02-24T17:12:37.826Z,93638.00
2023-02-24T17:15:18.811Z,93634.66
2023-02-24T17:18:12.832Z,93622.06
2023-02-24T17:21:00.033Z,93630.56
2023-02-24T17:23:32.943Z,93622.13
2023-02-24T17:26:22.083Z,93614.56
2023-02-24T17:28:55.935Z,93608.66
2023-02-24T17:31:42.953Z,93619.63
2023-02-24T17:34:27.846Z,93612.84
2023-02-24T17:37:21.840Z,93606.16
2023-02-24T17:40:15.839Z,93606.22
2023-02-24T17:43:09.846Z,93598.66
2023-02-24T17:45:57.864Z,93585.22
2023-02-24T17:48:37.846Z,93580.25
2023-02-24T17:51:26.836Z,93577.84
2023-02-24T17:54:00.937Z,93588.03
2023-02-24T17:56:47.832Z,93579.63
2023-02-24T17:59:20.935Z,93574.63
2023-02-24T18:02:08.907Z,93566.22
2023-02-24T18:04:41.957Z,93572.19
2023-02-24T18:07:28.856Z,93568.84
2023-02-24T18:10:02.017Z,93578.22
2023-02-24T18:12:48.836Z,93578.31
2023-02-24T18:15:28.912Z,93569.03
2023-02-24T18:18:15.906Z,93563.13
2023-02-24T18:20:49.992Z,93570.78
2023-02-24T18:23:44.846Z,93553.91
2023-02-24T18:26:38.840Z,93567.38
2023-02-24T18:29:32.848Z,93565.69
2023-02-24T18:32:19.994Z,93564.84
2023-02-24T18:34:53.033Z,93560.66
2023-02-24T18:37:39.867Z,93551.44
2023-02-24T18:40:20.840Z,93555.69
2023-02-24T18:43:15.002Z,93548.19
2023-02-24T18:46:07.028Z,93542.28
2023-02-24T18:48:41.340Z,93544.00
2023-02-24T18:51:29.876Z,93547.44
2023-02-24T18:54:13.283Z,93543.22
2023-02-24T18:57:06.872Z,93539.06
2023-02-24T18:59:57.879Z,93528.19
2023-02-24T19:02:37.886Z,93531.63
2023-02-24T19:05:38.395Z,93532.53
2023-02-24T19:08:25.869Z,93529.19
2023-02-24T19:10:58.951Z,93511.47
2023-02-24T19:13:45.930Z,93504.75
2023-02-24T19:16:19.048Z,93494.66
2023-02-24T19:19:06.871Z,93498.13
2023-02-24T19:21:41.018Z,93508.28
2023-02-24T19:24:27.875Z,93504.03
2023-02-24T19:27:01.267Z,93494.81
2023-02-24T19:29:47.870Z,93495.72
2023-02-24T19:32:28.007Z,93489.81
2023-02-24T19:35:23.026Z,93483.06
2023-02-24T19:38:10.024Z,93461.94
2023-02-24T19:40:43.099Z,93468.69
2023-02-24T19:43:29.873Z,93469.53
2023-02-24T19:46:03.051Z,93467.84
2023-02-24T19:48:49.905Z,93463.66
2023-02-24T19:51:25.981Z,93464.53
2023-02-24T19:54:12.898Z,93476.28
2023-02-24T19:56:52.893Z,93462.75
2023-02-24T19:59:46.899Z,93455.13
2023-02-24T20:02:40.889Z,93453.44
2023-02-24T20:05:27.889Z,93450.00
2023-02-24T20:08:07.894Z,93452.47
2023-02-24T20:11:11.876Z,93449.94
2023-02-24T20:13:59.907Z,93452.38
2023-02-24T20:16:34.830Z,93443.97
2023-02-24T20:19:22.894Z,93442.25
2023-02-24T20:22:02.920Z,93439.75
2023-02-24T20:24:57.060Z,93443.13
2023-02-24T20:27:50.914Z,93433.78
2023-02-24T20:30:37.936Z,93425.34
2023-02-24T20:33:11.029Z,93419.47
2023-02-24T20:35:58.891Z,93417.75
2023-02-24T20:38:38.911Z,93407.63
2023-02-24T20:41:27.899Z,93399.97
2023-02-24T20:44:02.098Z,93390.72
2023-02-24T20:46:48.931Z,93389.81
2023-02-24T20:49:22.066Z,93384.66
2023-02-24T20:52:08.919Z,93377.00
2023-02-24T20:54:44.264Z,93378.63
2023-02-24T20:57:30.935Z,93371.00
2023-02-24T21:00:14.937Z,93369.25
2023-02-24T21:03:13.907Z,93371.75
2023-02-24T21:06:09.474Z,93361.66
2023-02-24T21:08:45.803Z,93359.13
2023-02-24T21:11:33.945Z,93349.03
2023-02-24T21:14:13.908Z,93353.22
2023-02-24T21:17:07.935Z,93348.97
2023-02-24T21:19:55.910Z,93343.88
2023-02-24T21:22:31.314Z,93342.22
2023-02-24T21:25:17.979Z,93331.22
2023-02-24T21:27:52.030Z,93327.88
2023-02-24T21:30:39.015Z,93317.78
2023-02-24T21:33:19.912Z,93309.34
2023-02-24T21:36:17.933Z,93289.97
2023-02-24T21:39:04.924Z,93273.94
2023-02-24T21:41:38.059Z,93282.34
2023-02-24T21:44:24.920Z,93281.50
2023-02-24T21:46:58.084Z,93277.25
2023-02-24T21:49:44.927Z,93268.84
2023-02-24T21:52:18.026Z,93263.03
2023-02-24T21:55:04.932Z,93264.84
2023-02-24T21:57:41.108Z,93256.47
2023-02-24T22:00:28.872Z,93253.28
2023-02-24T22:03:08.991Z,93251.69
2023-02-24T22:06:02.940Z,93250.97
2023-02-24T22:08:49.971Z,93244.31
2023-02-24T22:11:24.028Z,93241.03
2023-02-24T22:14:13.925Z,93240.34
2023-02-24T22:16:48.041Z,93234.50
2023-02-24T22:19:34.938Z,93234.56
2023-02-24T22:22:14.949Z,93227.81
2023-02-24T22:25:08.944Z,93223.69
2023-02-24T22:28:02.925Z,93215.38
2023-02-24T22:30:49.960Z,93204.56
2023-02-24T22:33:29.945Z,93204.63
2023-02-24T22:36:18.949Z,93206.41
2023-02-24T22:38:53.071Z,93211.47
2023-02-24T22:41:41.957Z,93201.38
2023-02-24T22:44:25.964Z,93198.84
2023-02-24T22:47:19.932Z,93197.13
2023-02-24T22:50:06.996Z,93182.81
2023-02-24T22:52:40.049Z,93172.75
2023-02-24T22:55:26.958Z,93169.38
2023-02-24T22:58:06.951Z,93169.41
2023-02-24T23:01:05.013Z,93159.31
2023-02-24T23:03:53.138Z,93157.69
2023-02-24T23:06:38.990Z,93145.06
2023-02-24T23:09:32.951Z,93145.09
2023-02-24T23:12:21.940Z,93146.81
2023-02-24T23:14:55.073Z,93151.81
2023-02-24T23:17:41.959Z,93141.66
2023-02-24T23:20:16.315Z,93143.25
2023-02-24T23:23:09.960Z,93133.06
2023-02-24T23:26:03.983Z,93128.88
2023-02-24T23:28:50.995Z,93133.88
2023-02-24T23:31:33.041Z,93137.22
2023-02-24T23:34:28.051Z,93128.72
2023-02-24T23:37:22.977Z,93117.75
2023-02-24T23:40:21.013Z,93096.63
2023-02-24T23:42:54.401Z,93084.78
2023-02-24T23:45:44.005Z,93083.09
2023-02-24T23:48:20.805Z,93082.19
2023-02-24T23:51:13.990Z,93069.53
2023-02-24T23:53:56.035Z,93061.06
2023-02-24T23:56:49.980Z,93063.56
2023-02-24T23:59:44.030Z,93058.47
